sensor_id;sensor_type;location;lat;lon;timestamp;temperature;humidity
23089;DHT22;11713;48.506;8.966;2022-09-09T00:00:21;14.40;99.90
23089;DHT22;11713;48.506;8.966;2022-09-09T00:03:11;14.40;99.90
23089;DHT22;11713;48.506;8.966;2022-09-09T00:05:45;14.40;99.90
23089;DHT22;11713;48.506;8.966;2022-09-09T00:08:20;14.30;99.90
23089;DHT22;11713;48.506;8.966;2022-09-09T00:10:53;14.30;99.90
23089;DHT22;11713;48.506;8.966;2022-09-09T00:13:37;14.20;99.90
23089;DHT22;11713;48.506;8.966;2022-09-09T00:16:15;14.20;99.90
23089;DHT22;11713;48.506;8.966;2022-09-09T00:21:13;14.20;99.90
23089;DHT22;11713;48.506;8.966;2022-09-09T00:23:45;14.30;99.90
23089;DHT22;11713;48.506;8.966;2022-09-09T00:26:42;14.30;99.90
23089;DHT22;11713;48.506;8.966;2022-09-09T00:31:38;14.40;99.90
23089;DHT22;11713;48.506;8.966;2022-09-09T00:34:14;14.40;99.90
23089;DHT22;11713;48.506;8.966;2022-09-09T00:36:42;14.40;99.90
23089;DHT22;11713;48.506;8.966;2022-09-09T00:44:33;14.40;99.90
23089;DHT22;11713;48.506;8.966;2022-09-09T00:52:42;14.20;99.90
23089;DHT22;11713;48.506;8.966;2022-09-09T00:57:58;14.20;99.90
23089;DHT22;11713;48.506;8.966;2022-09-09T01:00:30;14.30;99.90
23089;DHT22;11713;48.506;8.966;2022-09-09T01:03:35;14.30;99.90
23089;DHT22;11713;48.506;8.966;2022-09-09T01:06:11;14.40;99.90
23089;DHT22;11713;48.506;8.966;2022-09-09T01:11:32;14.40;99.90
23089;DHT22;11713;48.506;8.966;2022-09-09T01:14:14;14.40;99.90
23089;DHT22;11713;48.506;8.966;2022-09-09T01:16:45;14.40;99.90
23089;DHT22;11713;48.506;8.966;2022-09-09T01:19:18;14.40;99.90
23089;DHT22;11713;48.506;8.966;2022-09-09T01:28:08;14.30;99.90
23089;DHT22;11713;48.506;8.966;2022-09-09T01:30:39;14.30;99.90
23089;DHT22;11713;48.506;8.966;2022-09-09T01:33:16;14.20;99.90
23089;DHT22;11713;48.506;8.966;2022-09-09T01:38:22;14.10;99.90
23089;DHT22;11713;48.506;8.966;2022-09-09T01:40:52;14.00;99.90
23089;DHT22;11713;48.506;8.966;2022-09-09T01:43:22;14.00;99.90
23089;DHT22;11713;48.506;8.966;2022-09-09T01:45:52;13.90;99.90
23089;DHT22;11713;48.506;8.966;2022-09-09T01:48:19;14.00;99.90
23089;DHT22;11713;48.506;8.966;2022-09-09T01:50:52;14.00;99.90
23089;DHT22;11713;48.506;8.966;2022-09-09T01:53:19;14.10;99.90
23089;DHT22;11713;48.506;8.966;2022-09-09T01:56:12;14.00;99.90
23089;DHT22;11713;48.506;8.966;2022-09-09T02:01:33;13.90;99.90
23089;DHT22;11713;48.506;8.966;2022-09-09T02:04:05;13.90;99.90
23089;DHT22;11713;48.506;8.966;2022-09-09T02:06:38;14.00;99.90
23089;DHT22;11713;48.506;8.966;2022-09-09T02:09:19;14.00;99.90
23089;DHT22;11713;48.506;8.966;2022-09-09T02:11:55;14.10;99.90
23089;DHT22;11713;48.506;8.966;2022-09-09T02:14:41;14.10;99.90
23089;DHT22;11713;48.506;8.966;2022-09-09T02:17:10;14.20;99.90
23089;DHT22;11713;48.506;8.966;2022-09-09T02:20:06;14.30;99.90
23089;DHT22;11713;48.506;8.966;2022-09-09T02:22:44;14.30;99.90
23089;DHT22;11713;48.506;8.966;2022-09-09T02:25:15;14.30;99.90
23089;DHT22;11713;48.506;8.966;2022-09-09T02:27:45;14.40;99.90
23089;DHT22;11713;48.506;8.966;2022-09-09T02:30:12;14.40;99.90
23089;DHT22;11713;48.506;8.966;2022-09-09T02:32:47;14.40;99.90
23089;DHT22;11713;48.506;8.966;2022-09-09T02:35:19;14.40;99.90
23089;DHT22;11713;48.506;8.966;2022-09-09T02:37:47;14.40;99.90
23089;DHT22;11713;48.506;8.966;2022-09-09T02:40:14;14.30;99.90
23089;DHT22;11713;48.506;8.966;2022-09-09T02:42:47;14.40;99.90
23089;DHT22;11713;48.506;8.966;2022-09-09T02:45:19;14.40;99.90
23089;DHT22;11713;48.506;8.966;2022-09-09T02:48:01;14.40;99.90
23089;DHT22;11713;48.506;8.966;2022-09-09T02:50:56;14.40;99.90
23089;DHT22;11713;48.506;8.966;2022-09-09T02:53:39;14.30;99.90
23089;DHT22;11713;48.506;8.966;2022-09-09T02:56:17;14.30;99.90
23089;DHT22;11713;48.506;8.966;2022-09-09T02:58:46;14.30;99.90
23089;DHT22;11713;48.506;8.966;2022-09-09T03:01:12;14.30;99.90
23089;DHT22;11713;48.506;8.966;2022-09-09T03:03:40;14.30;99.90
23089;DHT22;11713;48.506;8.966;2022-09-09T03:06:11;14.20;99.90
23089;DHT22;11713;48.506;8.966;2022-09-09T03:08:38;14.20;99.90
23089;DHT22;11713;48.506;8.966;2022-09-09T03:11:04;14.30;99.90
23089;DHT22;11713;48.506;8.966;2022-09-09T03:13:34;14.30;99.90
23089;DHT22;11713;48.506;8.966;2022-09-09T03:16:00;14.30;99.90
23089;DHT22;11713;48.506;8.966;2022-09-09T03:18:29;14.30;99.90
23089;DHT22;11713;48.506;8.966;2022-09-09T03:20:54;14.30;99.90
23089;DHT22;11713;48.506;8.966;2022-09-09T03:23:21;14.40;99.90
23089;DHT22;11713;48.506;8.966;2022-09-09T03:25:49;14.40;99.90
23089;DHT22;11713;48.506;8.966;2022-09-09T03:28:18;14.40;99.90
23089;DHT22;11713;48.506;8.966;2022-09-09T03:30:45;14.40;99.90
23089;DHT22;11713;48.506;8.966;2022-09-09T03:33:11;14.30;99.90
23089;DHT22;11713;48.506;8.966;2022-09-09T03:35:38;14.30;99.90
23089;DHT22;11713;48.506;8.966;2022-09-09T03:38:05;14.40;99.90
23089;DHT22;11713;48.506;8.966;2022-09-09T03:40:33;14.40;99.90
23089;DHT22;11713;48.506;8.966;2022-09-09T03:42:59;14.40;99.90
23089;DHT22;11713;48.506;8.966;2022-09-09T03:45:25;14.40;99.90
23089;DHT22;11713;48.506;8.966;2022-09-09T03:47:51;14.40;99.90
23089;DHT22;11713;48.506;8.966;2022-09-09T03:50:17;14.30;99.90
23089;DHT22;11713;48.506;8.966;2022-09-09T03:52:46;14.30;99.90
23089;DHT22;11713;48.506;8.966;2022-09-09T03:55:18;14.30;99.90
23089;DHT22;11713;48.506;8.966;2022-09-09T03:57:43;14.20;99.90
23089;DHT22;11713;48.506;8.966;2022-09-09T04:00:10;14.10;99.90
23089;DHT22;11713;48.506;8.966;2022-09-09T04:02:50;14.00;99.90
23089;DHT22;11713;48.506;8.966;2022-09-09T04:05:19;14.00;99.90
23089;DHT22;11713;48.506;8.966;2022-09-09T04:07:46;13.90;99.90
23089;DHT22;11713;48.506;8.966;2022-09-09T04:10:12;13.90;99.90
23089;DHT22;11713;48.506;8.966;2022-09-09T04:12:39;14.00;99.90
23089;DHT22;11713;48.506;8.966;2022-09-09T04:15:05;13.90;99.90
23089;DHT22;11713;48.506;8.966;2022-09-09T04:17:33;13.80;99.90
23089;DHT22;11713;48.506;8.966;2022-09-09T04:19:59;13.80;99.90
23089;DHT22;11713;48.506;8.966;2022-09-09T04:22:24;13.80;99.90
23089;DHT22;11713;48.506;8.966;2022-09-09T04:24:51;13.70;99.90
23089;DHT22;11713;48.506;8.966;2022-09-09T04:27:18;13.70;99.90
23089;DHT22;11713;48.506;8.966;2022-09-09T04:29:45;13.70;99.90
23089;DHT22;11713;48.506;8.966;2022-09-09T04:32:12;13.70;99.90
23089;DHT22;11713;48.506;8.966;2022-09-09T04:34:39;13.70;99.90
23089;DHT22;11713;48.506;8.966;2022-09-09T04:37:06;13.70;99.90
23089;DHT22;11713;48.506;8.966;2022-09-09T04:39:33;13.70;99.90
23089;DHT22;11713;48.506;8.966;2022-09-09T04:42:00;13.70;99.90
23089;DHT22;11713;48.506;8.966;2022-09-09T04:44:26;13.70;99.90
23089;DHT22;11713;48.506;8.966;2022-09-09T04:46:53;13.70;99.90
23089;DHT22;11713;48.506;8.966;2022-09-09T04:49:19;13.80;99.90
23089;DHT22;11713;48.506;8.966;2022-09-09T04:51:45;13.80;99.90
23089;DHT22;11713;48.506;8.966;2022-09-09T04:54:12;13.80;99.90
23089;DHT22;11713;48.506;8.966;2022-09-09T04:56:40;13.80;99.90
23089;DHT22;11713;48.506;8.966;2022-09-09T04:59:07;13.70;99.90
23089;DHT22;11713;48.506;8.966;2022-09-09T05:01:47;13.60;99.90
23089;DHT22;11713;48.506;8.966;2022-09-09T05:04:13;13.50;99.90
23089;DHT22;11713;48.506;8.966;2022-09-09T05:06:42;13.50;99.90
23089;DHT22;11713;48.506;8.966;2022-09-09T05:09:10;13.40;99.90
23089;DHT22;11713;48.506;8.966;2022-09-09T05:11:36;13.50;99.90
23089;DHT22;11713;48.506;8.966;2022-09-09T05:14:20;13.60;99.90
23089;DHT22;11713;48.506;8.966;2022-09-09T05:16:46;13.60;99.90
23089;DHT22;11713;48.506;8.966;2022-09-09T05:19:14;13.60;99.90
23089;DHT22;11713;48.506;8.966;2022-09-09T05:21:43;13.70;99.90
23089;DHT22;11713;48.506;8.966;2022-09-09T05:24:09;13.70;99.90
23089;DHT22;11713;48.506;8.966;2022-09-09T05:26:37;13.70;99.90
23089;DHT22;11713;48.506;8.966;2022-09-09T05:29:02;13.70;99.90
23089;DHT22;11713;48.506;8.966;2022-09-09T05:31:30;13.70;99.90
23089;DHT22;11713;48.506;8.966;2022-09-09T05:33:57;13.80;99.90
23089;DHT22;11713;48.506;8.966;2022-09-09T05:36:25;13.90;99.90
23089;DHT22;11713;48.506;8.966;2022-09-09T05:38:54;13.90;99.90
23089;DHT22;11713;48.506;8.966;2022-09-09T05:41:20;13.90;99.90
23089;DHT22;11713;48.506;8.966;2022-09-09T05:43:49;13.80;99.90
23089;DHT22;11713;48.506;8.966;2022-09-09T05:46:24;13.80;99.90
23089;DHT22;11713;48.506;8.966;2022-09-09T05:48:54;13.90;99.90
23089;DHT22;11713;48.506;8.966;2022-09-09T05:51:28;13.90;99.90
23089;DHT22;11713;48.506;8.966;2022-09-09T05:53:57;14.00;99.90
23089;DHT22;11713;48.506;8.966;2022-09-09T05:56:29;14.10;99.90
23089;DHT22;11713;48.506;8.966;2022-09-09T05:58:58;14.10;99.90
23089;DHT22;11713;48.506;8.966;2022-09-09T06:01:32;14.10;99.90
23089;DHT22;11713;48.506;8.966;2022-09-09T06:04:00;14.10;99.90
23089;DHT22;11713;48.506;8.966;2022-09-09T06:06:37;14.10;99.90
23089;DHT22;11713;48.506;8.966;2022-09-09T06:09:10;14.10;99.90
23089;DHT22;11713;48.506;8.966;2022-09-09T06:11:40;14.10;99.90
23089;DHT22;11713;48.506;8.966;2022-09-09T06:14:07;14.20;99.90
23089;DHT22;11713;48.506;8.966;2022-09-09T06:16:34;14.30;99.90
23089;DHT22;11713;48.506;8.966;2022-09-09T06:19:01;14.40;99.90
23089;DHT22;11713;48.506;8.966;2022-09-09T06:21:32;14.50;99.90
23089;DHT22;11713;48.506;8.966;2022-09-09T06:24:07;14.60;99.90
23089;DHT22;11713;48.506;8.966;2022-09-09T06:26:38;14.70;99.90
23089;DHT22;11713;48.506;8.966;2022-09-09T06:29:10;14.80;99.90
23089;DHT22;11713;48.506;8.966;2022-09-09T06:31:37;14.90;99.90
23089;DHT22;11713;48.506;8.966;2022-09-09T06:34:15;15.00;99.90
23089;DHT22;11713;48.506;8.966;2022-09-09T06:36:45;15.10;99.90
23089;DHT22;11713;48.506;8.966;2022-09-09T06:39:12;15.20;99.90
23089;DHT22;11713;48.506;8.966;2022-09-09T06:41:39;15.30;99.90
23089;DHT22;11713;48.506;8.966;2022-09-09T06:44:09;15.40;99.90
23089;DHT22;11713;48.506;8.966;2022-09-09T06:46:41;15.50;99.90
23089;DHT22;11713;48.506;8.966;2022-09-09T06:49:09;15.50;99.90
23089;DHT22;11713;48.506;8.966;2022-09-09T06:51:37;15.60;99.90
23089;DHT22;11713;48.506;8.966;2022-09-09T06:54:09;15.70;99.90
23089;DHT22;11713;48.506;8.966;2022-09-09T06:56:37;15.70;99.90
23089;DHT22;11713;48.506;8.966;2022-09-09T06:59:08;15.80;99.90
23089;DHT22;11713;48.506;8.966;2022-09-09T07:01:37;15.80;99.90
23089;DHT22;11713;48.506;8.966;2022-09-09T07:04:07;15.90;99.90
23089;DHT22;11713;48.506;8.966;2022-09-09T07:06:37;16.00;99.90
23089;DHT22;11713;48.506;8.966;2022-09-09T07:09:09;16.10;99.90
23089;DHT22;11713;48.506;8.966;2022-09-09T07:11:44;16.20;99.90
23089;DHT22;11713;48.506;8.966;2022-09-09T07:14:11;16.30;99.90
23089;DHT22;11713;48.506;8.966;2022-09-09T07:16:41;16.40;99.90
23089;DHT22;11713;48.506;8.966;2022-09-09T07:19:07;16.50;99.90
23089;DHT22;11713;48.506;8.966;2022-09-09T07:21:33;16.60;99.90
23089;DHT22;11713;48.506;8.966;2022-09-09T07:24:00;16.60;99.90
23089;DHT22;11713;48.506;8.966;2022-09-09T07:26:29;16.70;99.90
23089;DHT22;11713;48.506;8.966;2022-09-09T07:28:57;16.70;99.90
23089;DHT22;11713;48.506;8.966;2022-09-09T07:31:29;16.90;99.90
23089;DHT22;11713;48.506;8.966;2022-09-09T07:33:59;17.00;99.90
23089;DHT22;11713;48.506;8.966;2022-09-09T07:36:30;17.00;99.90
23089;DHT22;11713;48.506;8.966;2022-09-09T07:38:59;17.10;99.90
23089;DHT22;11713;48.506;8.966;2022-09-09T07:41:45;17.10;99.90
23089;DHT22;11713;48.506;8.966;2022-09-09T07:44:15;17.20;99.90
23089;DHT22;11713;48.506;8.966;2022-09-09T07:46:44;17.40;99.90
23089;DHT22;11713;48.506;8.966;2022-09-09T07:49:14;17.50;99.90
23089;DHT22;11713;48.506;8.966;2022-09-09T07:51:43;17.50;99.90
23089;DHT22;11713;48.506;8.966;2022-09-09T07:54:12;17.40;99.90
23089;DHT22;11713;48.506;8.966;2022-09-09T07:56:41;17.40;99.90
23089;DHT22;11713;48.506;8.966;2022-09-09T07:59:09;17.50;99.90
23089;DHT22;11713;48.506;8.966;2022-09-09T08:01:42;17.40;99.90
23089;DHT22;11713;48.506;8.966;2022-09-09T08:04:12;17.40;99.90
23089;DHT22;11713;48.506;8.966;2022-09-09T08:06:48;17.40;99.90
23089;DHT22;11713;48.506;8.966;2022-09-09T08:09:16;17.40;99.90
23089;DHT22;11713;48.506;8.966;2022-09-09T08:11:43;17.40;99.90
23089;DHT22;11713;48.506;8.966;2022-09-09T08:14:11;17.40;99.90
23089;DHT22;11713;48.506;8.966;2022-09-09T08:16:40;17.50;99.90
23089;DHT22;11713;48.506;8.966;2022-09-09T08:19:07;17.60;99.90
23089;DHT22;11713;48.506;8.966;2022-09-09T08:21:35;17.70;99.90
23089;DHT22;11713;48.506;8.966;2022-09-09T08:24:03;17.70;99.90
23089;DHT22;11713;48.506;8.966;2022-09-09T08:26:36;17.80;99.90
23089;DHT22;11713;48.506;8.966;2022-09-09T08:29:05;17.90;99.90
23089;DHT22;11713;48.506;8.966;2022-09-09T08:31:35;18.00;99.90
23089;DHT22;11713;48.506;8.966;2022-09-09T08:34:03;18.00;99.90
23089;DHT22;11713;48.506;8.966;2022-09-09T08:36:33;18.10;99.90
23089;DHT22;11713;48.506;8.966;2022-09-09T08:39:00;18.10;99.90
23089;DHT22;11713;48.506;8.966;2022-09-09T08:47:48;18.30;99.90
23089;DHT22;11713;48.506;8.966;2022-09-09T08:50:36;18.30;99.90
23089;DHT22;11713;48.506;8.966;2022-09-09T08:53:28;18.50;99.90
23089;DHT22;11713;48.506;8.966;2022-09-09T08:56:24;18.80;99.90
23089;DHT22;11713;48.506;8.966;2022-09-09T08:58:54;19.20;99.90
23089;DHT22;11713;48.506;8.966;2022-09-09T09:02:00;19.40;99.90
23089;DHT22;11713;48.506;8.966;2022-09-09T09:05:12;19.60;99.90
23089;DHT22;11713;48.506;8.966;2022-09-09T09:10:47;19.90;99.90
23089;DHT22;11713;48.506;8.966;2022-09-09T09:13:21;20.10;99.90
23089;DHT22;11713;48.506;8.966;2022-09-09T09:16:02;20.30;99.90
23089;DHT22;11713;48.506;8.966;2022-09-09T09:18:33;20.30;99.90
23089;DHT22;11713;48.506;8.966;2022-09-09T09:21:28;20.40;99.90
23089;DHT22;11713;48.506;8.966;2022-09-09T09:24:00;20.60;99.90
23089;DHT22;11713;48.506;8.966;2022-09-09T09:26:35;20.70;99.90
23089;DHT22;11713;48.506;8.966;2022-09-09T09:29:10;20.80;99.90
23089;DHT22;11713;48.506;8.966;2022-09-09T09:31:37;20.90;99.90
23089;DHT22;11713;48.506;8.966;2022-09-09T09:34:03;20.90;99.90
23089;DHT22;11713;48.506;8.966;2022-09-09T09:39:03;21.00;99.90
23089;DHT22;11713;48.506;8.966;2022-09-09T09:41:40;21.20;99.90
23089;DHT22;11713;48.506;8.966;2022-09-09T09:44:27;21.30;99.90
23089;DHT22;11713;48.506;8.966;2022-09-09T09:49:33;21.10;99.90
23089;DHT22;11713;48.506;8.966;2022-09-09T09:52:03;21.20;99.90
23089;DHT22;11713;48.506;8.966;2022-09-09T09:54:38;21.30;99.90
23089;DHT22;11713;48.506;8.966;2022-09-09T09:57:16;21.40;99.90
23089;DHT22;11713;48.506;8.966;2022-09-09T09:59:46;21.30;99.90
23089;DHT22;11713;48.506;8.966;2022-09-09T10:02:25;21.30;99.90
23089;DHT22;11713;48.506;8.966;2022-09-09T10:05:24;21.20;99.90
23089;DHT22;11713;48.506;8.966;2022-09-09T10:08:12;21.30;99.90
23089;DHT22;11713;48.506;8.966;2022-09-09T10:11:06;21.50;99.90
23089;DHT22;11713;48.506;8.966;2022-09-09T10:22:27;21.60;99.90
23089;DHT22;11713;48.506;8.966;2022-09-09T10:30:33;22.00;99.90
23089;DHT22;11713;48.506;8.966;2022-09-09T10:33:09;22.10;99.90
23089;DHT22;11713;48.506;8.966;2022-09-09T10:38:40;22.60;99.90
23089;DHT22;11713;48.506;8.966;2022-09-09T10:41:44;22.50;99.90
23089;DHT22;11713;48.506;8.966;2022-09-09T10:47:04;22.70;99.90
23089;DHT22;11713;48.506;8.966;2022-09-09T10:55:20;23.20;99.90
23089;DHT22;11713;48.506;8.966;2022-09-09T10:57:51;23.00;99.90
23089;DHT22;11713;48.506;8.966;2022-09-09T11:00:25;22.90;99.90
23089;DHT22;11713;48.506;8.966;2022-09-09T11:03:03;22.60;99.90
23089;DHT22;11713;48.506;8.966;2022-09-09T11:05:45;22.20;99.90
23089;DHT22;11713;48.506;8.966;2022-09-09T11:08:19;22.10;99.90
23089;DHT22;11713;48.506;8.966;2022-09-09T11:13:27;21.80;99.90
23089;DHT22;11713;48.506;8.966;2022-09-09T11:19:36;21.40;99.90
23089;DHT22;11713;48.506;8.966;2022-09-09T11:24:34;21.30;99.90
23089;DHT22;11713;48.506;8.966;2022-09-09T11:27:15;21.50;99.90
23089;DHT22;11713;48.506;8.966;2022-09-09T11:38:27;22.40;99.90
23089;DHT22;11713;48.506;8.966;2022-09-09T11:40:59;22.60;99.90
23089;DHT22;11713;48.506;8.966;2022-09-09T11:46:04;23.30;99.90
23089;DHT22;11713;48.506;8.966;2022-09-09T11:48:38;23.40;99.90
23089;DHT22;11713;48.506;8.966;2022-09-09T11:51:09;23.40;99.90
23089;DHT22;11713;48.506;8.966;2022-09-09T11:53:51;23.50;99.90
23089;DHT22;11713;48.506;8.966;2022-09-09T11:56:32;23.70;99.90
23089;DHT22;11713;48.506;8.966;2022-09-09T11:59:05;23.80;99.90
23089;DHT22;11713;48.506;8.966;2022-09-09T12:01:39;23.80;99.90
23089;DHT22;11713;48.506;8.966;2022-09-09T12:04:17;23.90;99.90
23089;DHT22;11713;48.506;8.966;2022-09-09T12:06:59;23.80;99.90
23089;DHT22;11713;48.506;8.966;2022-09-09T12:12:37;23.80;99.90
23089;DHT22;11713;48.506;8.966;2022-09-09T12:17:50;23.20;99.90
23089;DHT22;11713;48.506;8.966;2022-09-09T12:23:14;22.80;99.90
23089;DHT22;11713;48.506;8.966;2022-09-09T12:26:11;22.80;99.90
23089;DHT22;11713;48.506;8.966;2022-09-09T12:28:52;23.10;99.90
23089;DHT22;11713;48.506;8.966;2022-09-09T12:31:35;23.20;99.90
23089;DHT22;11713;48.506;8.966;2022-09-09T12:34:25;23.10;99.90
23089;DHT22;11713;48.506;8.966;2022-09-09T12:37:00;23.10;99.90
23089;DHT22;11713;48.506;8.966;2022-09-09T12:39:47;22.90;99.90
23089;DHT22;11713;48.506;8.966;2022-09-09T12:42:17;22.60;99.90
23089;DHT22;11713;48.506;8.966;2022-09-09T12:44:55;22.20;99.90
23089;DHT22;11713;48.506;8.966;2022-09-09T12:49:57;21.60;99.90
23089;DHT22;11713;48.506;8.966;2022-09-09T12:52:34;21.30;99.90
23089;DHT22;11713;48.506;8.966;2022-09-09T12:55:04;21.10;99.90
23089;DHT22;11713;48.506;8.966;2022-09-09T12:57:35;21.10;99.90
23089;DHT22;11713;48.506;8.966;2022-09-09T13:00:17;21.00;99.90
23089;DHT22;11713;48.506;8.966;2022-09-09T13:02:54;21.40;99.90
23089;DHT22;11713;48.506;8.966;2022-09-09T13:05:34;21.70;99.90
23089;DHT22;11713;48.506;8.966;2022-09-09T13:08:05;22.10;99.90
23089;DHT22;11713;48.506;8.966;2022-09-09T13:10:34;22.30;99.90
23089;DHT22;11713;48.506;8.966;2022-09-09T13:13:01;22.40;99.90
23089;DHT22;11713;48.506;8.966;2022-09-09T13:15:29;22.70;99.90
23089;DHT22;11713;48.506;8.966;2022-09-09T13:18:06;22.80;99.90
23089;DHT22;11713;48.506;8.966;2022-09-09T13:20:37;23.00;99.90
23089;DHT22;11713;48.506;8.966;2022-09-09T13:23:03;22.80;99.90
23089;DHT22;11713;48.506;8.966;2022-09-09T13:25:29;22.70;99.90
23089;DHT22;11713;48.506;8.966;2022-09-09T13:28:04;22.20;99.90
23089;DHT22;11713;48.506;8.966;2022-09-09T13:30:36;22.00;99.90
23089;DHT22;11713;48.506;8.966;2022-09-09T13:33:20;21.90;99.90
23089;DHT22;11713;48.506;8.966;2022-09-09T13:38:16;21.90;99.90
23089;DHT22;11713;48.506;8.966;2022-09-09T13:40:59;22.00;99.90
23089;DHT22;11713;48.506;8.966;2022-09-09T13:43:34;21.90;99.90
23089;DHT22;11713;48.506;8.966;2022-09-09T13:49:01;21.60;99.90
23089;DHT22;11713;48.506;8.966;2022-09-09T13:51:34;21.60;99.90
23089;DHT22;11713;48.506;8.966;2022-09-09T13:54:03;21.60;99.90
23089;DHT22;11713;48.506;8.966;2022-09-09T13:56:34;21.60;99.90
23089;DHT22;11713;48.506;8.966;2022-09-09T13:59:01;21.90;99.90
23089;DHT22;11713;48.506;8.966;2022-09-09T14:01:27;22.30;99.90
23089;DHT22;11713;48.506;8.966;2022-09-09T14:03:54;22.40;99.90
23089;DHT22;11713;48.506;8.966;2022-09-09T14:06:20;22.50;99.90
23089;DHT22;11713;48.506;8.966;2022-09-09T14:08:51;22.70;99.90
23089;DHT22;11713;48.506;8.966;2022-09-09T14:11:18;22.70;99.90
23089;DHT22;11713;48.506;8.966;2022-09-09T14:13:44;22.80;99.90
23089;DHT22;11713;48.506;8.966;2022-09-09T14:16:10;23.00;99.90
23089;DHT22;11713;48.506;8.966;2022-09-09T14:18:36;23.20;99.90
23089;DHT22;11713;48.506;8.966;2022-09-09T14:21:03;23.50;99.90
23089;DHT22;11713;48.506;8.966;2022-09-09T14:23:29;23.50;99.90
23089;DHT22;11713;48.506;8.966;2022-09-09T14:25:56;23.50;99.90
23089;DHT22;11713;48.506;8.966;2022-09-09T14:28:22;23.50;99.90
23089;DHT22;11713;48.506;8.966;2022-09-09T14:30:58;23.20;99.90
23089;DHT22;11713;48.506;8.966;2022-09-09T14:33:25;23.30;99.90
23089;DHT22;11713;48.506;8.966;2022-09-09T14:35:59;23.50;99.90
23089;DHT22;11713;48.506;8.966;2022-09-09T14:38:33;23.80;99.90
23089;DHT22;11713;48.506;8.966;2022-09-09T14:41:00;23.90;99.90
23089;DHT22;11713;48.506;8.966;2022-09-09T14:43:29;24.00;99.90
23089;DHT22;11713;48.506;8.966;2022-09-09T14:45:57;24.10;99.90
23089;DHT22;11713;48.506;8.966;2022-09-09T14:48:23;23.90;99.90
23089;DHT22;11713;48.506;8.966;2022-09-09T14:50:49;23.80;99.90
23089;DHT22;11713;48.506;8.966;2022-09-09T14:53:16;23.60;99.90
23089;DHT22;11713;48.506;8.966;2022-09-09T14:55:42;23.30;99.90
23089;DHT22;11713;48.506;8.966;2022-09-09T14:58:08;23.10;99.90
23089;DHT22;11713;48.506;8.966;2022-09-09T15:00:33;22.90;99.90
23089;DHT22;11713;48.506;8.966;2022-09-09T15:02:59;22.70;99.90
23089;DHT22;11713;48.506;8.966;2022-09-09T15:05:25;22.80;99.90
23089;DHT22;11713;48.506;8.966;2022-09-09T15:07:51;23.00;99.90
23089;DHT22;11713;48.506;8.966;2022-09-09T15:10:17;23.20;99.90
23089;DHT22;11713;48.506;8.966;2022-09-09T15:12:43;23.10;99.90
23089;DHT22;11713;48.506;8.966;2022-09-09T15:15:09;23.00;99.90
23089;DHT22;11713;48.506;8.966;2022-09-09T15:17:35;22.80;99.90
23089;DHT22;11713;48.506;8.966;2022-09-09T15:20:03;22.60;99.90
23089;DHT22;11713;48.506;8.966;2022-09-09T15:22:31;22.40;99.90
23089;DHT22;11713;48.506;8.966;2022-09-09T15:24:57;22.30;99.90
23089;DHT22;11713;48.506;8.966;2022-09-09T15:27:23;22.10;99.90
23089;DHT22;11713;48.506;8.966;2022-09-09T15:29:49;21.90;99.90
23089;DHT22;11713;48.506;8.966;2022-09-09T15:32:17;21.80;99.90
23089;DHT22;11713;48.506;8.966;2022-09-09T15:34:43;21.60;99.90
23089;DHT22;11713;48.506;8.966;2022-09-09T15:37:12;21.40;99.90
23089;DHT22;11713;48.506;8.966;2022-09-09T15:39:39;21.30;99.90
23089;DHT22;11713;48.506;8.966;2022-09-09T15:42:05;21.20;99.90
23089;DHT22;11713;48.506;8.966;2022-09-09T15:44:39;21.20;99.90
23089;DHT22;11713;48.506;8.966;2022-09-09T15:47:05;21.10;99.90
23089;DHT22;11713;48.506;8.966;2022-09-09T15:49:31;21.10;99.90
23089;DHT22;11713;48.506;8.966;2022-09-09T15:51:58;21.00;99.90
23089;DHT22;11713;48.506;8.966;2022-09-09T15:54:32;20.90;99.90
23089;DHT22;11713;48.506;8.966;2022-09-09T15:57:02;20.90;99.90
23089;DHT22;11713;48.506;8.966;2022-09-09T15:59:30;20.90;99.90
23089;DHT22;11713;48.506;8.966;2022-09-09T16:01:57;20.90;99.90
23089;DHT22;11713;48.506;8.966;2022-09-09T16:04:26;21.00;99.90
23089;DHT22;11713;48.506;8.966;2022-09-09T16:07:01;20.90;99.90
23089;DHT22;11713;48.506;8.966;2022-09-09T16:09:27;20.90;99.90
23089;DHT22;11713;48.506;8.966;2022-09-09T16:11:59;20.80;99.90
23089;DHT22;11713;48.506;8.966;2022-09-09T16:14:26;20.70;99.90
23089;DHT22;11713;48.506;8.966;2022-09-09T16:16:52;20.70;99.90
23089;DHT22;11713;48.506;8.966;2022-09-09T16:19:19;20.70;99.90
23089;DHT22;11713;48.506;8.966;2022-09-09T16:21:46;20.60;99.90
23089;DHT22;11713;48.506;8.966;2022-09-09T16:24:16;20.50;99.90
23089;DHT22;11713;48.506;8.966;2022-09-09T16:26:45;20.50;99.90
23089;DHT22;11713;48.506;8.966;2022-09-09T16:29:12;20.40;99.90
23089;DHT22;11713;48.506;8.966;2022-09-09T16:31:38;20.20;99.90
23089;DHT22;11713;48.506;8.966;2022-09-09T16:34:06;20.20;99.90
23089;DHT22;11713;48.506;8.966;2022-09-09T16:36:35;20.10;99.90
23089;DHT22;11713;48.506;8.966;2022-09-09T16:39:04;20.10;99.90
23089;DHT22;11713;48.506;8.966;2022-09-09T16:41:31;20.10;99.90
23089;DHT22;11713;48.506;8.966;2022-09-09T16:44:01;20.10;99.90
23089;DHT22;11713;48.506;8.966;2022-09-09T16:46:35;20.00;99.90
23089;DHT22;11713;48.506;8.966;2022-09-09T16:49:03;19.90;99.90
23089;DHT22;11713;48.506;8.966;2022-09-09T16:51:36;19.90;99.90
23089;DHT22;11713;48.506;8.966;2022-09-09T16:54:04;19.80;99.90
23089;DHT22;11713;48.506;8.966;2022-09-09T16:56:33;19.90;99.90
23089;DHT22;11713;48.506;8.966;2022-09-09T16:59:04;19.80;99.90
23089;DHT22;11713;48.506;8.966;2022-09-09T17:01:33;19.80;99.90
23089;DHT22;11713;48.506;8.966;2022-09-09T17:04:02;19.70;99.90
23089;DHT22;11713;48.506;8.966;2022-09-09T17:06:30;19.70;99.90
23089;DHT22;11713;48.506;8.966;2022-09-09T17:08:57;19.70;99.90
23089;DHT22;11713;48.506;8.966;2022-09-09T17:11:24;19.60;99.90
23089;DHT22;11713;48.506;8.966;2022-09-09T17:13:51;19.70;99.90
23089;DHT22;11713;48.506;8.966;2022-09-09T17:16:19;19.70;99.90
23089;DHT22;11713;48.506;8.966;2022-09-09T17:18:49;19.70;99.90
23089;DHT22;11713;48.506;8.966;2022-09-09T17:21:18;19.70;99.90
23089;DHT22;11713;48.506;8.966;2022-09-09T17:23:45;19.60;99.90
23089;DHT22;11713;48.506;8.966;2022-09-09T17:26:14;19.60;99.90
23089;DHT22;11713;48.506;8.966;2022-09-09T17:28:41;19.50;99.90
23089;DHT22;11713;48.506;8.966;2022-09-09T17:31:09;19.50;99.90
23089;DHT22;11713;48.506;8.966;2022-09-09T17:33:38;19.50;99.90
23089;DHT22;11713;48.506;8.966;2022-09-09T17:36:16;19.50;99.90
23089;DHT22;11713;48.506;8.966;2022-09-09T17:38:44;19.40;99.90
23089;DHT22;11713;48.506;8.966;2022-09-09T17:41:16;19.30;99.90
23089;DHT22;11713;48.506;8.966;2022-09-09T17:43:43;19.30;99.90
23089;DHT22;11713;48.506;8.966;2022-09-09T17:48:39;19.20;99.90